createdAt,value
2022-12-03T00:00:12.212Z,71.31
2022-12-03T00:02:40.769Z,71.57
2022-12-03T00:05:07.932Z,70.88
2022-12-03T00:07:35.245Z,69.88
2022-12-03T00:10:05.262Z,70.09
2022-12-03T00:12:32.700Z,70.65
2022-12-03T00:14:59.773Z,68.83
2022-12-03T00:17:26.838Z,69.52
2022-12-03T00:19:53.595Z,70.36
2022-12-03T00:22:20.412Z,70.15
2022-12-03T00:24:47.181Z,70.17
2022-12-03T00:27:13.936Z,69.74
2022-12-03T00:29:41.020Z,69.71
2022-12-03T00:32:09.240Z,70.35
2022-12-03T00:34:37.295Z,71.29
2022-12-03T00:37:04.190Z,71.65
2022-12-03T00:39:32.849Z,72.19
2022-12-03T00:42:02.420Z,72.34
2022-12-03T00:44:29.511Z,71.90
2022-12-03T00:46:59.142Z,71.34
2022-12-03T00:49:26.303Z,69.88
2022-12-03T00:51:53.375Z,69.93
2022-12-03T00:54:20.138Z,68.46
2022-12-03T00:56:49.613Z,66.77
2022-12-03T00:59:16.409Z,66.91
2022-12-03T01:01:43.194Z,66.89
2022-12-03T01:04:10.026Z,69.06
2022-12-03T01:06:37.069Z,68.00
2022-12-03T01:09:04.173Z,65.39
2022-12-03T01:11:31.224Z,71.29
2022-12-03T01:13:57.989Z,72.80
2022-12-03T01:16:27.928Z,71.74
2022-12-03T01:18:54.785Z,71.85
2022-12-03T01:21:21.935Z,71.00
2022-12-03T01:23:48.758Z,73.64
2022-12-03T01:26:15.828Z,72.50
2022-12-03T01:28:45.485Z,71.24
2022-12-03T01:31:12.651Z,72.52
2022-12-03T01:33:40.556Z,72.74
2022-12-03T01:36:10.057Z,73.89
2022-12-03T01:38:38.068Z,74.35
2022-12-03T01:41:11.528Z,74.50
2022-12-03T01:43:39.929Z,75.18
2022-12-03T01:46:07.438Z,74.73
2022-12-03T01:48:35.116Z,75.39
2022-12-03T01:51:02.139Z,75.08
2022-12-03T01:53:29.203Z,74.41
2022-12-03T01:55:59.014Z,74.68
2022-12-03T01:58:26.825Z,74.96
2022-12-03T02:00:57.888Z,74.80
2022-12-03T02:03:25.507Z,75.03
2022-12-03T02:05:52.452Z,74.66
2022-12-03T02:08:38.119Z,75.49
2022-12-03T02:11:18.427Z,75.70
2022-12-03T02:13:45.495Z,75.64
2022-12-03T02:16:12.730Z,75.80
2022-12-03T02:18:39.493Z,75.76
2022-12-03T02:21:29.335Z,76.13
2022-12-03T02:24:04.491Z,76.21
2022-12-03T02:26:31.578Z,76.38
2022-12-03T02:28:58.671Z,76.42
2022-12-03T02:31:25.522Z,77.03
2022-12-03T02:33:52.728Z,77.04
2022-12-03T02:36:19.900Z,77.02
2022-12-03T02:38:46.660Z,76.74
2022-12-03T02:41:14.058Z,76.96
2022-12-03T02:43:41.156Z,76.55
2022-12-03T02:46:10.616Z,77.86
2022-12-03T02:48:38.245Z,77.78
2022-12-03T02:51:06.865Z,77.73
2022-12-03T02:53:38.660Z,78.12
2022-12-03T02:56:05.840Z,78.40
2022-12-03T02:58:32.666Z,78.17
2022-12-03T03:00:59.572Z,79.31
2022-12-03T03:03:27.197Z,79.52
2022-12-03T03:05:54.070Z,79.65
2022-12-03T03:08:21.069Z,80.01
2022-12-03T03:10:47.818Z,80.32
2022-12-03T03:13:16.100Z,80.55
2022-12-03T03:15:42.885Z,80.72
2022-12-03T03:18:10.531Z,80.79
2022-12-03T03:20:40.097Z,80.92
2022-12-03T03:23:17.649Z,80.61
2022-12-03T03:25:56.668Z,80.13
2022-12-03T03:28:23.380Z,80.84
2022-12-03T03:30:50.504Z,80.46
2022-12-03T03:33:17.645Z,80.14
2022-12-03T03:35:45.692Z,80.00
2022-12-03T03:38:16.671Z,80.10
2022-12-03T03:40:45.433Z,80.23
2022-12-03T03:43:13.452Z,80.13
2022-12-03T03:45:41.622Z,80.32
2022-12-03T03:48:08.793Z,80.55
2022-12-03T03:50:35.539Z,80.90
2022-12-03T03:53:02.638Z,81.08
2022-12-03T03:55:29.998Z,81.11
2022-12-03T03:57:57.154Z,80.51
2022-12-03T04:00:24.639Z,80.90
2022-12-03T04:02:52.756Z,80.85
2022-12-03T04:05:21.850Z,80.70
2022-12-03T04:07:48.945Z,80.57
2022-12-03T04:10:17.003Z,80.67
2022-12-03T04:13:04.341Z,80.68
2022-12-03T04:15:31.396Z,80.27
2022-12-03T04:18:07.595Z,80.77
2022-12-03T04:20:34.467Z,80.39
2022-12-03T04:23:04.278Z,80.32
2022-12-03T04:25:31.356Z,80.52
2022-12-03T04:27:58.164Z,79.92
2022-12-03T04:30:25.333Z,80.36
2022-12-03T04:32:55.055Z,80.17
2022-12-03T04:35:22.153Z,79.97
2022-12-03T04:37:49.058Z,80.08
2022-12-03T04:40:16.117Z,79.53
2022-12-03T04:42:43.181Z,79.29
2022-12-03T04:45:11.156Z,79.09
2022-12-03T04:47:40.047Z,79.63
2022-12-03T04:50:07.815Z,78.96
2022-12-03T04:52:34.660Z,78.69
2022-12-03T04:55:01.777Z,79.21
2022-12-03T04:57:29.246Z,79.02
2022-12-03T04:59:56.265Z,79.20
2022-12-03T05:02:23.063Z,79.40
2022-12-03T05:04:50.175Z,79.56
2022-12-03T05:07:19.582Z,79.88
2022-12-03T05:09:46.643Z,80.11
2022-12-03T05:12:13.681Z,79.91
2022-12-03T05:14:40.428Z,79.44
2022-12-03T05:17:07.561Z,79.50
2022-12-03T05:19:34.473Z,79.48
2022-12-03T05:22:02.312Z,79.30
2022-12-03T05:24:29.230Z,78.94
2022-12-03T05:26:58.799Z,78.89
2022-12-03T05:29:25.871Z,78.17
2022-12-03T05:31:52.965Z,77.84
2022-12-03T05:34:21.003Z,77.93
2022-12-03T05:36:50.592Z,77.50
2022-12-03T05:39:18.639Z,77.76
2022-12-03T05:41:45.694Z,77.42
2022-12-03T05:44:16.251Z,76.84
2022-12-03T05:46:48.406Z,76.94
2022-12-03T05:49:17.975Z,76.82
2022-12-03T05:51:45.055Z,77.01
2022-12-03T05:54:12.088Z,76.75
2022-12-03T05:56:39.153Z,77.03
2022-12-03T05:59:06.232Z,76.60
2022-12-03T06:01:33.706Z,75.88
2022-12-03T06:04:00.915Z,74.88
2022-12-03T06:06:27.773Z,74.76
2022-12-03T06:08:54.837Z,73.71
2022-12-03T06:11:23.120Z,72.49
2022-12-03T06:13:50.297Z,71.76
2022-12-03T06:16:17.474Z,70.30
2022-12-03T06:18:44.626Z,69.76
2022-12-03T06:21:11.404Z,70.98
2022-12-03T06:23:38.252Z,68.87
2022-12-03T06:26:05.255Z,68.70
2022-12-03T06:28:32.417Z,69.57
2022-12-03T06:30:59.515Z,69.46
2022-12-03T06:33:26.624Z,72.54
2022-12-03T06:35:53.678Z,74.65
2022-12-03T06:38:20.776Z,74.60
2022-12-03T06:40:48.729Z,73.11
2022-12-03T06:43:15.848Z,72.13
2022-12-03T06:45:47.519Z,70.76
2022-12-03T06:48:14.801Z,72.76
2022-12-03T06:50:41.986Z,74.65
2022-12-03T06:53:09.387Z,76.22
2022-12-03T06:55:36.171Z,75.53
2022-12-03T06:58:02.976Z,74.92
2022-12-03T07:00:32.648Z,75.72
2022-12-03T07:03:00.185Z,74.99
2022-12-03T07:05:27.112Z,75.91
2022-12-03T07:07:54.363Z,75.82
2022-12-03T07:10:21.728Z,75.99
2022-12-03T07:12:51.206Z,75.22
2022-12-03T07:15:18.292Z,74.69
2022-12-03T07:17:45.353Z,73.97
2022-12-03T07:20:15.034Z,72.32
2022-12-03T07:22:41.820Z,71.48
2022-12-03T07:25:11.587Z,71.72
2022-12-03T07:27:38.856Z,71.69
2022-12-03T07:30:07.541Z,72.36
2022-12-03T07:32:35.426Z,72.25
2022-12-03T07:35:03.579Z,71.33
2022-12-03T07:37:30.431Z,71.17
2022-12-03T07:39:57.592Z,72.56
2022-12-03T07:42:24.665Z,71.85
2022-12-03T07:44:52.034Z,70.65
2022-12-03T07:47:19.148Z,71.09
2022-12-03T07:49:48.882Z,71.33
2022-12-03T07:52:18.444Z,72.38
2022-12-03T07:54:45.657Z,72.35
2022-12-03T07:57:15.161Z,71.28
2022-12-03T07:59:42.696Z,71.31
2022-12-03T08:02:09.962Z,70.95
2022-12-03T08:04:37.712Z,71.61
2022-12-03T08:07:04.518Z,68.73
2022-12-03T08:09:31.649Z,70.92
2022-12-03T08:11:58.822Z,69.34
2022-12-03T08:14:26.469Z,70.75
2022-12-03T08:16:53.289Z,71.95
2022-12-03T08:19:20.372Z,72.92
2022-12-03T08:21:47.448Z,73.67
2022-12-03T08:24:15.785Z,74.34
2022-12-03T08:26:43.864Z,74.34
2022-12-03T08:29:12.249Z,74.43
2022-12-03T08:31:39.822Z,74.78
2022-12-03T08:34:22.136Z,75.19
2022-12-03T08:36:56.899Z,74.81
2022-12-03T08:39:32.683Z,75.08
2022-12-03T08:42:22.524Z,75.55
2022-12-03T08:44:52.628Z,74.87
2022-12-03T08:47:20.418Z,74.97
2022-12-03T08:50:08.017Z,74.19
2022-12-03T08:52:34.836Z,76.94
2022-12-03T08:55:10.685Z,75.75
2022-12-03T08:57:40.776Z,75.88
2022-12-03T09:00:34.042Z,76.13
2022-12-03T09:03:01.858Z,75.26
2022-12-03T09:05:30.416Z,76.14
2022-12-03T09:07:57.513Z,75.84
2022-12-03T09:10:24.382Z,76.68
2022-12-03T09:12:52.167Z,75.78
2022-12-03T09:15:18.975Z,74.18
2022-12-03T09:17:45.957Z,72.06
2022-12-03T09:20:13.106Z,69.99
2022-12-03T09:22:42.624Z,67.61
2022-12-03T09:25:10.157Z,69.24
2022-12-03T09:27:39.821Z,71.82
2022-12-03T09:30:08.126Z,71.46
2022-12-03T09:32:35.393Z,71.00
2022-12-03T09:35:02.194Z,72.09
2022-12-03T09:37:29.181Z,69.87
2022-12-03T09:39:56.389Z,67.96
2022-12-03T09:42:23.213Z,69.92
2022-12-03T09:44:51.930Z,67.24
2022-12-03T09:47:20.013Z,69.94
2022-12-03T09:49:47.489Z,71.49
2022-12-03T09:52:22.561Z,70.80
2022-12-03T09:54:49.465Z,73.55
2022-12-03T09:57:16.296Z,73.05
2022-12-03T09:59:43.132Z,74.00
2022-12-03T10:02:29.445Z,73.65
2022-12-03T10:04:57.065Z,73.91
2022-12-03T10:07:26.184Z,73.38
2022-12-03T10:09:53.511Z,71.04
2022-12-03T10:12:22.893Z,69.75
2022-12-03T10:14:50.108Z,67.03
2022-12-03T10:17:17.035Z,69.13
2022-12-03T10:19:43.769Z,69.99
2022-12-03T10:22:11.453Z,71.97
2022-12-03T10:24:41.036Z,71.05
2022-12-03T10:27:24.652Z,70.63
2022-12-03T10:29:58.960Z,69.68
2022-12-03T10:32:27.006Z,68.63
2022-12-03T10:35:09.896Z,71.81
2022-12-03T10:37:36.755Z,72.84
2022-12-03T10:40:12.565Z,73.71
2022-12-03T10:42:40.245Z,73.93
2022-12-03T10:45:27.281Z,73.05
2022-12-03T10:48:13.174Z,74.93
2022-12-03T10:50:50.634Z,73.14
2022-12-03T10:53:17.860Z,72.85
2022-12-03T10:55:45.060Z,73.46
2022-12-03T10:58:22.909Z,73.76
2022-12-03T11:00:52.858Z,73.47
2022-12-03T11:03:23.320Z,75.26
2022-12-03T11:05:50.565Z,73.47
2022-12-03T11:08:24.971Z,73.30
2022-12-03T11:11:01.682Z,72.15
2022-12-03T11:13:44.400Z,72.13
2022-12-03T11:16:11.159Z,75.07
2022-12-03T11:18:49.884Z,73.52
2022-12-03T11:21:16.933Z,70.39
2022-12-03T11:24:03.277Z,68.76
2022-12-03T11:26:29.983Z,69.01
2022-12-03T11:28:57.691Z,67.59
2022-12-03T11:32:02.797Z,70.97
2022-12-03T11:34:35.151Z,73.43
2022-12-03T11:37:10.677Z,74.60
2022-12-03T11:39:52.857Z,74.35
2022-12-03T11:42:23.135Z,73.94
2022-12-03T11:45:07.250Z,73.98
2022-12-03T11:47:48.421Z,73.88
2022-12-03T11:50:24.651Z,73.31
2022-12-03T11:53:25.280Z,73.33
2022-12-03T11:56:04.591Z,74.59
2022-12-03T11:58:39.168Z,74.18
2022-12-03T12:01:07.161Z,73.90
2022-12-03T12:03:43.171Z,73.34
2022-12-03T12:06:28.073Z,72.16
2022-12-03T12:08:56.792Z,73.22
2022-12-03T12:11:30.867Z,73.92
2022-12-03T12:14:18.506Z,73.43
2022-12-03T12:16:48.280Z,72.70
2022-12-03T12:19:30.425Z,71.95
2022-12-03T12:22:25.362Z,74.21
2022-12-03T12:25:02.218Z,74.24
2022-12-03T12:27:39.990Z,73.53
2022-12-03T12:30:20.849Z,73.36
2022-12-03T12:33:09.192Z,73.06
2022-12-03T12:35:35.889Z,73.13
2022-12-03T12:38:14.856Z,73.59
2022-12-03T12:40:43.047Z,73.68
2022-12-03T12:43:25.624Z,72.93
2022-12-03T12:45:54.876Z,73.20
2022-12-03T12:48:36.897Z,73.52
2022-12-03T12:51:10.300Z,73.20
2022-12-03T12:53:37.492Z,73.56
2022-12-03T12:56:21.561Z,74.65
2022-12-03T12:58:48.723Z,73.30
2022-12-03T13:01:26.985Z,73.68
2022-12-03T13:03:53.787Z,73.90
2022-12-03T13:06:31.118Z,74.54
2022-12-03T13:08:58.223Z,72.21
2022-12-03T13:11:27.926Z,71.46
2022-12-03T13:13:55.104Z,72.85
2022-12-03T13:16:32.278Z,73.37
2022-12-03T13:18:59.751Z,73.69
2022-12-03T13:21:43.024Z,74.62
2022-12-03T13:24:31.985Z,75.26
2022-12-03T13:27:22.908Z,74.71
2022-12-03T13:29:59.064Z,75.35
2022-12-03T13:32:47.660Z,74.93
2022-12-03T13:35:31.188Z,76.19
2022-12-03T13:37:58.692Z,76.73
2022-12-03T13:40:40.841Z,75.69
2022-12-03T13:43:17.052Z,75.69
2022-12-03T13:45:44.230Z,76.09
2022-12-03T13:48:30.837Z,75.48
2022-12-03T13:51:02.012Z,76.16
2022-12-03T13:53:48.625Z,75.96
2022-12-03T13:56:21.048Z,76.38
2022-12-03T13:58:48.230Z,77.67
2022-12-03T14:01:15.368Z,78.05
2022-12-03T14:03:42.514Z,77.39
2022-12-03T14:06:10.373Z,76.89
2022-12-03T14:08:37.084Z,77.17
2022-12-03T14:11:06.825Z,76.29
2022-12-03T14:13:33.669Z,77.43
2022-12-03T14:16:00.862Z,78.45
2022-12-03T14:18:27.752Z,77.64
2022-12-03T14:20:54.933Z,77.12
2022-12-03T14:23:24.712Z,78.21
2022-12-03T14:25:51.962Z,78.51
2022-12-03T14:28:19.009Z,79.08
2022-12-03T14:30:45.757Z,78.62
2022-12-03T14:33:13.169Z,78.83
2022-12-03T14:35:41.094Z,79.45
2022-12-03T14:38:10.616Z,79.72
2022-12-03T14:40:40.145Z,79.63
2022-12-03T14:43:07.164Z,79.92
2022-12-03T14:45:36.682Z,79.96
2022-12-03T14:48:03.778Z,79.78
2022-12-03T14:50:30.604Z,80.46
2022-12-03T14:52:57.644Z,80.73
2022-12-03T14:55:24.540Z,80.24
2022-12-03T14:57:51.728Z,80.41
2022-12-03T15:00:19.171Z,80.43
2022-12-03T15:02:46.063Z,79.84
2022-12-03T15:05:13.894Z,79.41
2022-12-03T15:07:41.044Z,79.89
2022-12-03T15:10:09.445Z,79.41
2022-12-03T15:12:36.668Z,79.27
2022-12-03T15:15:04.147Z,80.05
2022-12-03T15:17:32.138Z,80.10
2022-12-03T15:20:00.442Z,79.74
2022-12-03T15:22:28.551Z,79.99
2022-12-03T15:24:55.624Z,80.20
2022-12-03T15:27:22.386Z,80.44
2022-12-03T15:29:49.198Z,80.43
2022-12-03T15:32:22.001Z,80.67
2022-12-03T15:34:51.515Z,80.82
2022-12-03T15:37:18.656Z,81.01
2022-12-03T15:39:52.719Z,81.68
2022-12-03T15:42:20.598Z,81.67
2022-12-03T15:44:47.360Z,81.61
2022-12-03T15:47:14.094Z,81.32
2022-12-03T15:49:40.859Z,81.90
2022-12-03T15:52:09.973Z,81.10
2022-12-03T15:54:37.049Z,81.67
2022-12-03T15:57:04.180Z,81.35
2022-12-03T15:59:31.427Z,81.39
2022-12-03T16:01:58.246Z,81.88
2022-12-03T16:04:25.620Z,82.33
2022-12-03T16:06:52.664Z,81.76
2022-12-03T16:09:25.243Z,81.99
2022-12-03T16:11:55.273Z,81.96
2022-12-03T16:14:22.420Z,81.76
2022-12-03T16:16:49.251Z,81.76
2022-12-03T16:19:16.318Z,81.84
2022-12-03T16:21:43.394Z,81.96
2022-12-03T16:24:10.251Z,81.86
2022-12-03T16:26:37.250Z,81.52
2022-12-03T16:29:04.321Z,82.08
2022-12-03T16:31:31.197Z,81.64
2022-12-03T16:33:58.220Z,81.88
2022-12-03T16:36:24.932Z,82.02
2022-12-03T16:38:51.652Z,82.57
2022-12-03T16:41:18.502Z,81.92
2022-12-03T16:43:45.802Z,81.86
2022-12-03T16:46:12.719Z,81.60
2022-12-03T16:48:39.439Z,81.98
2022-12-03T16:51:06.528Z,82.17
2022-12-03T16:53:33.252Z,81.98
2022-12-03T16:56:00.684Z,81.81
2022-12-03T16:58:27.517Z,81.30
2022-12-03T17:00:55.511Z,81.08
2022-12-03T17:03:22.517Z,81.00
2022-12-03T17:05:49.755Z,81.50
2022-12-03T17:08:16.702Z,81.42
2022-12-03T17:10:43.756Z,81.72
2022-12-03T17:13:11.020Z,81.21
2022-12-03T17:15:38.573Z,81.78
2022-12-03T17:18:05.744Z,81.89
2022-12-03T17:20:33.054Z,81.92
2022-12-03T17:22:59.984Z,81.54
2022-12-03T17:25:26.937Z,81.94
2022-12-03T17:27:53.811Z,82.05
2022-12-03T17:30:21.320Z,82.19
2022-12-03T17:32:48.370Z,82.01
2022-12-03T17:35:15.084Z,82.19
2022-12-03T17:37:42.257Z,82.53
2022-12-03T17:40:11.971Z,82.77
2022-12-03T17:42:38.675Z,82.91
2022-12-03T17:45:07.354Z,82.19
2022-12-03T17:47:34.249Z,82.20
2022-12-03T17:50:01.942Z,82.22
2022-12-03T17:52:28.726Z,81.97
2022-12-03T17:55:10.916Z,82.23
2022-12-03T17:57:38.853Z,82.48
2022-12-03T18:00:11.510Z,82.45
2022-12-03T18:02:38.388Z,82.60
2022-12-03T18:05:05.965Z,82.27
2022-12-03T18:07:33.379Z,83.02
2022-12-03T18:10:01.990Z,83.08
2022-12-03T18:12:28.949Z,82.71
2022-12-03T18:14:55.892Z,82.69
2022-12-03T18:17:22.614Z,82.49
2022-12-03T18:19:50.487Z,81.84
2022-12-03T18:22:17.529Z,82.35
2022-12-03T18:24:46.265Z,82.51
2022-12-03T18:27:14.479Z,82.70
2022-12-03T18:29:41.332Z,82.68
2022-12-03T18:32:27.114Z,82.61
2022-12-03T18:34:56.637Z,82.29
2022-12-03T18:37:27.141Z,82.34
2022-12-03T18:39:54.106Z,82.46
2022-12-03T18:42:21.602Z,82.24
2022-12-03T18:44:49.953Z,82.24
2022-12-03T18:47:19.202Z,82.15
2022-12-03T18:49:45.944Z,82.30
2022-12-03T18:52:13.841Z,82.43
2022-12-03T18:54:40.545Z,82.27
2022-12-03T18:57:07.296Z,82.13
2022-12-03T18:59:34.076Z,82.33
2022-12-03T19:02:01.200Z,82.46
2022-12-03T19:04:28.020Z,82.44
2022-12-03T19:06:55.208Z,82.59
2022-12-03T19:09:21.925Z,82.68
2022-12-03T19:11:49.791Z,82.45
2022-12-03T19:14:16.819Z,82.32
2022-12-03T19:16:43.621Z,82.66
2022-12-03T19:19:14.480Z,82.79
2022-12-03T19:21:41.522Z,82.65
2022-12-03T19:24:25.256Z,82.61
2022-12-03T19:26:52.496Z,82.27
2022-12-03T19:29:19.326Z,82.33
2022-12-03T19:31:46.149Z,82.18
2022-12-03T19:34:13.955Z,82.23
2022-12-03T19:36:40.873Z,82.41
2022-12-03T19:39:07.894Z,82.50
2022-12-03T19:41:34.973Z,82.70
2022-12-03T19:44:05.136Z,82.31
2022-12-03T19:46:36.209Z,82.52
2022-12-03T19:49:03.000Z,81.94
2022-12-03T19:51:35.043Z,80.95
2022-12-03T19:54:06.672Z,81.83
2022-12-03T19:56:33.477Z,82.24
2022-12-03T19:59:00.482Z,82.37
2022-12-03T20:01:32.658Z,82.52
2022-12-03T20:04:00.791Z,82.39
2022-12-03T20:06:30.236Z,82.11
2022-12-03T20:09:01.852Z,82.21
2022-12-03T20:11:30.096Z,82.59
2022-12-03T20:13:58.981Z,82.81
2022-12-03T20:16:25.815Z,82.82
2022-12-03T20:18:56.250Z,82.70
2022-12-03T20:21:23.291Z,82.82
2022-12-03T20:23:52.854Z,82.82
2022-12-03T20:26:19.986Z,82.42
2022-12-03T20:28:47.957Z,82.96
2022-12-03T20:31:18.753Z,82.34
2022-12-03T20:33:47.831Z,81.99
2022-12-03T20:36:15.368Z,81.54
2022-12-03T20:38:42.222Z,82.12
2022-12-03T20:41:10.641Z,81.96
2022-12-03T20:43:37.376Z,82.62
2022-12-03T20:46:10.711Z,82.78
2022-12-03T20:48:37.702Z,82.69
2022-12-03T20:51:09.610Z,82.63
2022-12-03T20:53:36.781Z,82.94
2022-12-03T20:56:04.812Z,82.84
2022-12-03T20:58:31.633Z,83.15
2022-12-03T21:01:18.357Z,83.18
2022-12-03T21:03:46.189Z,83.17
2022-12-03T21:06:13.446Z,83.48
2022-12-03T21:08:42.700Z,83.34
2022-12-03T21:11:13.938Z,83.08
2022-12-03T21:13:41.695Z,83.04
2022-12-03T21:16:12.053Z,83.34
2022-12-03T21:18:39.447Z,83.17
2022-12-03T21:21:07.925Z,83.53
2022-12-03T21:23:34.936Z,83.47
2022-12-03T21:26:07.059Z,83.26
2022-12-03T21:28:34.151Z,83.47
2022-12-03T21:31:08.069Z,82.68
2022-12-03T21:33:36.362Z,82.57
2022-12-03T21:36:05.617Z,82.70
2022-12-03T21:38:33.112Z,82.27
2022-12-03T21:41:01.108Z,82.43
2022-12-03T21:43:28.685Z,82.14
2022-12-03T21:45:57.757Z,81.52
2022-12-03T21:48:25.038Z,81.29
2022-12-03T21:51:02.381Z,81.57
2022-12-03T21:53:29.926Z,81.72
2022-12-03T21:55:58.613Z,81.48
2022-12-03T21:58:26.204Z,81.50
2022-12-03T22:00:52.991Z,81.36
2022-12-03T22:03:20.270Z,81.35
2022-12-03T22:05:47.115Z,81.71
2022-12-03T22:08:13.989Z,82.03
2022-12-03T22:10:41.010Z,82.13
2022-12-03T22:13:07.883Z,82.12
2022-12-03T22:15:34.941Z,81.67
2022-12-03T22:18:02.181Z,82.16
2022-12-03T22:20:29.255Z,81.77
2022-12-03T22:22:56.235Z,81.94
2022-12-03T22:25:22.973Z,82.17
2022-12-03T22:27:49.812Z,81.97
2022-12-03T22:30:16.578Z,82.17
2022-12-03T22:32:45.481Z,81.96
2022-12-03T22:35:19.542Z,82.04
2022-12-03T22:37:47.355Z,82.37
2022-12-03T22:40:14.565Z,82.21
2022-12-03T22:42:46.372Z,82.39
2022-12-03T22:45:17.696Z,82.38
2022-12-03T22:47:45.456Z,82.15
2022-12-03T22:50:12.432Z,81.64
2022-12-03T22:52:39.344Z,82.01
2022-12-03T22:55:08.696Z,82.40
2022-12-03T22:57:35.823Z,83.24
2022-12-03T23:00:05.563Z,82.84
2022-12-03T23:02:33.333Z,82.98
2022-12-03T23:05:00.884Z,82.95
2022-12-03T23:07:30.943Z,81.84
2022-12-03T23:10:00.612Z,81.00
2022-12-03T23:12:27.747Z,81.71
2022-12-03T23:14:55.201Z,81.43
2022-12-03T23:17:22.796Z,80.10
2022-12-03T23:19:49.544Z,80.84
2022-12-03T23:22:16.793Z,80.31
2022-12-03T23:24:43.895Z,79.65
2022-12-03T23:27:10.654Z,78.28
2022-12-03T23:29:37.786Z,75.47
2022-12-03T23:32:05.101Z,75.88
2022-12-03T23:34:32.503Z,78.90
2022-12-03T23:36:59.641Z,78.82
2022-12-03T23:39:26.891Z,78.99
2022-12-03T23:41:53.969Z,80.65
2022-12-03T23:44:20.772Z,80.41
2022-12-03T23:46:47.604Z,80.52
2022-12-03T23:49:14.605Z,81.02
2022-12-03T23:51:41.475Z,80.43
2022-12-03T23:54:09.061Z,80.39
2022-12-03T23:56:36.198Z,80.81
2022-12-03T23:59:03.049Z,80.23
